Time,TemperatureF,DewpointF,PressureIn,WindDirection,WindDirectionDegrees,WindSpeedMPH,WindSpeedGustMPH,Humidity,HourlyPrecipIn,Conditions,Clouds,dailyrainin,SoftwareType,DateUTC
2013-03-10 00:32:00,42.0,34.0,29.96,SSE,157,0.0,0.0,73,0.00,,,0.00,,2013-03-10 05:32:00,
2013-03-10 00:42:00,42.0,34.0,29.96,SSE,157,0.0,0.0,73,0.00,,,0.00,,2013-03-10 05:42:00,
2013-03-10 00:52:00,42.0,34.0,29.96,SSE,157,0.0,0.0,73,0.00,,,0.00,,2013-03-10 05:52:00,
2013-03-10 01:02:00,42.0,34.0,29.96,North,-999,-999.0,-999.0,73,0.00,,,0.00,,2013-03-10 06:02:00,
2013-03-10 01:11:00,40.0,33.0,29.95,South,180,0.0,0.0,75,0.00,,,0.00,,2013-03-10 06:11:00,
2013-03-10 01:22:00,40.0,33.0,29.95,South,180,0.0,0.0,75,0.00,,,0.00,,2013-03-10 06:22:00,
2013-03-10 01:32:00,40.0,33.0,29.95,South,180,0.0,0.0,75,0.00,,,0.00,,2013-03-10 06:32:00,
2013-03-10 01:42:00,40.0,33.0,29.95,SSW,202,0.0,0.0,75,0.00,,,0.00,,2013-03-10 06:42:00,
2013-03-10 01:51:00,40.0,33.0,29.95,SSW,202,0.0,0.0,75,0.00,,,0.00,,2013-03-10 06:51:00,
2013-03-10 03:02:00,40.0,33.0,29.95,SSW,202,0.0,0.0,75,0.00,,,0.00,,2013-03-10 07:02:00,
2013-03-10 03:11:00,40.0,33.0,29.95,NW,315,0.0,0.0,76,0.00,,,0.00,,2013-03-10 07:11:00,
2013-03-10 03:21:00,40.0,33.0,29.95,NW,315,0.0,0.0,76,0.00,,,0.00,,2013-03-10 07:21:00,
2013-03-10 03:32:00,40.0,33.0,29.94,South,180,1.0,1.0,77,0.00,,,0.00,,2013-03-10 07:32:00,
2013-03-10 03:42:00,42.0,35.0,29.93,SSE,157,2.0,2.0,77,0.00,,,0.00,,2013-03-10 07:42:00,
2013-03-10 03:52:00,42.0,35.0,29.93,SSE,157,2.0,2.0,77,0.00,,,0.00,,2013-03-10 07:52:00,
2013-03-10 04:01:00,42.0,35.0,29.93,SSE,157,0.0,0.0,76,0.00,,,0.00,,2013-03-10 08:01:00,
2013-03-10 04:11:00,43.0,35.0,29.92,South,180,1.0,1.0,74,0.00,,,0.00,,2013-03-10 08:11:00,
2013-03-10 04:21:00,43.0,35.0,29.92,South,180,1.0,1.0,74,0.00,,,0.00,,2013-03-10 08:21:00,
2013-03-10 04:31:00,43.0,35.0,29.92,South,180,1.0,1.0,74,0.00,,,0.00,,2013-03-10 08:31:00,
2013-03-10 04:42:00,43.0,35.0,29.91,South,180,1.0,1.0,74,0.00,,,0.00,,2013-03-10 08:42:00,
2013-03-10 04:52:00,43.0,35.0,29.91,South,180,1.0,1.0,74,0.00,,,0.00,,2013-03-10 08:52:00,
2013-03-10 05:01:00,43.0,35.0,29.90,SSE,157,2.0,2.0,74,0.00,,,0.00,,2013-03-10 09:01:00,
2013-03-10 05:11:00,44.0,36.0,29.91,SSE,157,2.0,2.0,72,0.00,,,0.00,,2013-03-10 09:11:00,
2013-03-10 05:21:00,44.0,36.0,29.91,SSE,157,2.0,2.0,72,0.00,,,0.00,,2013-03-10 09:21:00,
2013-03-10 05:31:00,44.0,36.0,29.91,South,180,0.0,2.0,72,0.00,,,0.00,,2013-03-10 09:31:00,
2013-03-10 05:41:00,44.0,36.0,29.91,South,180,0.0,0.0,72,0.00,,,0.00,,2013-03-10 09:41:00,
2013-03-10 05:52:00,44.0,36.0,29.91,South,180,0.0,0.0,72,0.00,,,0.00,,2013-03-10 09:52:00,
2013-03-10 06:01:00,44.0,35.0,29.91,South,180,1.0,1.0,71,0.00,,,0.00,,2013-03-10 10:01:00,
2013-03-10 06:11:00,44.0,35.0,29.91,South,180,1.0,1.0,71,0.00,,,0.00,,2013-03-10 10:11:00,
2013-03-10 06:21:00,44.0,36.0,29.90,South,180,1.0,1.0,72,0.00,,,0.00,,2013-03-10 10:21:00,
2013-03-10 06:32:00,44.0,36.0,29.92,SSE,157,1.0,1.0,72,0.00,,,0.00,,2013-03-10 10:32:00,
2013-03-10 06:42:00,44.0,36.0,29.92,South,180,0.0,1.0,72,0.00,,,0.00,,2013-03-10 10:42:00,
2013-03-10 06:52:00,44.0,36.0,29.92,South,180,0.0,1.0,72,0.00,,,0.00,,2013-03-10 10:52:00,
2013-03-10 07:01:00,43.0,35.0,29.93,South,180,0.0,0.0,72,0.00,,,0.00,,2013-03-10 11:01:00,
2013-03-10 07:12:00,42.0,34.0,29.93,SSE,157,0.0,1.0,74,0.00,,,0.00,,2013-03-10 11:12:00,
2013-03-10 07:21:00,42.0,34.0,29.93,SSE,157,0.0,1.0,74,0.00,,,0.00,,2013-03-10 11:21:00,
2013-03-10 07:32:00,43.0,35.0,29.94,SSE,157,0.0,0.0,74,0.00,,,0.00,,2013-03-10 11:32:00,
2013-03-10 07:42:00,43.0,35.0,29.94,SSE,157,0.0,0.0,74,0.00,,,0.00,,2013-03-10 11:42:00,
2013-03-10 07:52:00,43.0,35.0,29.94,SSE,157,0.0,0.0,74,0.00,,,0.00,,2013-03-10 11:52:00,
2013-03-10 08:01:00,43.0,35.0,29.94,SSE,157,0.0,0.0,74,0.00,,,0.00,,2013-03-10 12:01:00,
2013-03-10 08:11:00,43.0,35.0,29.94,SSE,157,0.0,0.0,74,0.00,,,0.00,,2013-03-10 12:11:00,
2013-03-10 08:21:00,42.0,35.0,29.95,SSE,157,0.0,0.0,75,0.00,,,0.00,,2013-03-10 12:21:00,
2013-03-10 08:31:00,42.0,35.0,29.94,SSE,157,0.0,0.0,76,0.00,,,0.00,,2013-03-10 12:31:00,
2013-03-10 08:42:00,42.0,35.0,29.94,SSE,157,0.0,0.0,76,0.00,,,0.00,,2013-03-10 12:42:00,
2013-03-10 08:52:00,43.0,36.0,29.93,SSE,157,0.0,2.0,76,0.00,,,0.00,,2013-03-10 12:52:00,
2013-03-10 09:01:00,43.0,36.0,29.92,SSW,202,0.0,0.0,76,0.00,,,0.00,,2013-03-10 13:01:00,
2013-03-10 09:11:00,43.0,36.0,29.92,SSW,202,0.0,0.0,76,0.00,,,0.00,,2013-03-10 13:11:00,
2013-03-10 09:21:00,43.0,36.0,29.92,SW,225,0.0,0.0,76,0.00,,,0.00,,2013-03-10 13:21:00,
2013-03-10 09:31:00,43.0,36.0,29.94,West,270,0.0,0.0,76,0.00,,,0.00,,2013-03-10 13:31:00,
2013-03-10 09:41:00,43.0,36.0,29.94,West,270,0.0,0.0,76,0.00,,,0.00,,2013-03-10 13:41:00,
2013-03-10 09:52:00,43.0,36.0,29.92,South,180,0.0,0.0,77,0.00,,,0.00,,2013-03-10 13:52:00,
2013-03-10 10:01:00,44.0,37.0,29.92,South,180,0.0,3.0,77,0.00,,,0.00,,2013-03-10 14:01:00,
2013-03-10 10:11:00,44.0,37.0,29.92,South,180,0.0,3.0,77,0.00,,,0.00,,2013-03-10 14:11:00,
2013-03-10 10:21:00,46.0,39.0,29.92,SW,225,0.0,2.0,76,0.00,,,0.00,,2013-03-10 14:21:00,
2013-03-10 10:32:00,47.0,39.0,29.92,South,180,0.0,2.0,75,0.00,,,0.00,,2013-03-10 14:32:00,
2013-03-10 10:42:00,47.0,39.0,29.92,South,180,0.0,2.0,75,0.00,,,0.00,,2013-03-10 14:42:00,
2013-03-10 10:52:00,48.0,40.0,29.92,SSE,157,0.0,0.0,75,0.00,,,0.00,,2013-03-10 14:52:00,
2013-03-10 11:01:00,49.0,41.0,29.92,WSW,247,1.0,1.0,73,0.00,,,0.00,,2013-03-10 15:01:00,
2013-03-10 11:11:00,49.0,41.0,29.92,WSW,247,1.0,1.0,73,0.00,,,0.00,,2013-03-10 15:11:00,
2013-03-10 11:21:00,49.0,41.0,29.93,WSW,247,1.0,1.0,73,0.00,,,0.00,,2013-03-10 15:21:00,
2013-03-10 11:32:00,49.0,41.0,29.92,SE,135,0.0,1.0,73,0.00,,,0.00,,2013-03-10 15:32:00,
2013-03-10 11:42:00,49.0,41.0,29.92,SE,135,0.0,1.0,73,0.00,,,0.00,,2013-03-10 15:42:00,
2013-03-10 11:52:00,48.0,39.0,29.92,South,180,2.0,2.0,72,0.00,,,0.00,,2013-03-10 15:52:00,
2013-03-10 12:01:00,48.0,39.0,29.92,SSE,157,2.0,2.0,71,0.00,,,0.00,,2013-03-10 16:01:00,
2013-03-10 12:12:00,48.0,39.0,29.92,SSE,157,2.0,2.0,71,0.00,,,0.00,,2013-03-10 16:12:00,
2013-03-10 12:21:00,47.0,38.0,29.92,SW,225,3.0,3.0,72,0.00,,,0.00,,2013-03-10 16:21:00,
2013-03-10 12:32:00,48.0,39.0,29.92,WSW,247,0.0,4.0,71,0.00,,,0.00,,2013-03-10 16:32:00,
2013-03-10 12:41:00,48.0,39.0,29.92,WSW,247,0.0,4.0,71,0.00,,,0.00,,2013-03-10 16:41:00,
2013-03-10 12:52:00,48.0,39.0,29.90,South,180,0.0,1.0,70,0.00,,,0.00,,2013-03-10 16:52:00,
2013-03-10 13:01:00,48.0,38.0,29.90,SSE,157,3.0,3.0,69,0.00,,,0.00,,2013-03-10 17:01:00,
2013-03-10 13:11:00,48.0,38.0,29.90,SSE,157,3.0,3.0,69,0.00,,,0.00,,2013-03-10 17:11:00,
2013-03-10 13:21:00,47.0,37.0,29.90,SSE,157,0.0,3.0,69,0.00,,,0.00,,2013-03-10 17:21:00,
2013-03-10 13:31:00,48.0,38.0,29.89,SSW,202,0.0,0.0,68,0.00,,,0.00,,2013-03-10 17:31:00,
2013-03-10 13:41:00,48.0,38.0,29.89,SSW,202,0.0,0.0,68,0.00,,,0.00,,2013-03-10 17:41:00,
2013-03-10 13:51:00,48.0,38.0,29.88,SSE,157,7.0,7.0,67,0.00,,,0.00,,2013-03-10 17:51:00,
2013-03-10 14:01:00,49.0,39.0,29.89,SW,225,2.0,7.0,68,0.00,,,0.00,,2013-03-10 18:01:00,
2013-03-10 14:11:00,50.0,39.0,29.90,SSW,202,0.0,5.0,67,0.00,,,0.00,,2013-03-10 18:11:00,
2013-03-10 14:22:00,50.0,39.0,29.90,SSW,202,0.0,5.0,67,0.00,,,0.00,,2013-03-10 18:22:00,
2013-03-10 14:32:00,51.0,40.0,29.90,WSW,247,3.0,6.0,65,0.00,,,0.00,,2013-03-10 18:32:00,
2013-03-10 14:42:00,51.0,40.0,29.90,WSW,247,3.0,6.0,65,0.00,,,0.00,,2013-03-10 18:42:00,
2013-03-10 14:52:00,50.0,39.0,29.89,WSW,247,0.0,5.0,65,0.00,,,0.00,,2013-03-10 18:52:00,
2013-03-10 15:01:00,50.0,39.0,29.88,South,180,0.0,3.0,66,0.00,,,0.00,,2013-03-10 19:01:00,
2013-03-10 15:11:00,50.0,39.0,29.88,South,180,0.0,3.0,66,0.00,,,0.00,,2013-03-10 19:11:00,
2013-03-10 15:21:00,51.0,40.0,29.86,SSW,202,1.0,1.0,65,0.00,,,0.00,,2013-03-10 19:21:00,
2013-03-10 15:32:00,52.0,41.0,29.84,SE,135,0.0,4.0,65,0.00,,,0.00,,2013-03-10 19:32:00,
2013-03-10 15:42:00,52.0,41.0,29.84,SE,135,0.0,4.0,65,0.00,,,0.00,,2013-03-10 19:42:00,
2013-03-10 15:53:00,54.0,42.0,29.82,South,180,4.0,7.0,63,0.00,,,0.00,,2013-03-10 19:53:00,
2013-03-10 16:02:00,55.0,42.0,29.82,SSW,202,3.0,4.0,62,0.00,,,0.00,,2013-03-10 20:02:00,
2013-03-10 16:12:00,55.0,42.0,29.82,SSW,202,3.0,4.0,62,0.00,,,0.00,,2013-03-10 20:12:00,
2013-03-10 16:22:00,56.0,42.0,29.82,SSW,202,4.0,8.0,60,0.00,,,0.00,,2013-03-10 20:22:00,
2013-03-10 16:32:00,57.0,43.0,29.83,SSE,157,0.0,8.0,60,0.00,,,0.00,,2013-03-10 20:32:00,
2013-03-10 16:43:00,57.0,43.0,29.83,SSE,157,0.0,8.0,60,0.00,,,0.00,,2013-03-10 20:43:00,
2013-03-10 16:53:00,58.0,44.0,29.84,SSE,157,1.0,3.0,59,0.00,,,0.00,,2013-03-10 20:53:00,
2013-03-10 17:02:00,59.0,44.0,29.84,SSE,157,6.0,7.0,57,0.00,,,0.00,,2013-03-10 21:02:00,
2013-03-10 17:12:00,59.0,44.0,29.84,SSE,157,6.0,7.0,57,0.00,,,0.00,,2013-03-10 21:12:00,
2013-03-10 17:23:00,61.0,45.0,29.83,SSE,158,7.0,10.0,56,0.00,,,0.00,,2013-03-10 21:23:00,
2013-03-10 17:32:00,60.0,44.0,29.82,SSW,202,2.0,7.0,55,0.00,,,0.00,,2013-03-10 21:32:00,
2013-03-10 17:42:00,60.0,44.0,29.82,SSW,202,2.0,7.0,55,0.00,,,0.00,,2013-03-10 21:42:00,
2013-03-10 17:53:00,60.0,44.0,29.81,SE,135,7.0,7.0,55,0.00,,,0.00,,2013-03-10 21:53:00,
2013-03-10 18:02:00,60.0,44.0,29.80,SE,135,0.0,7.0,55,0.00,,,0.00,,2013-03-10 22:02:00,
2013-03-10 18:12:00,60.0,44.0,29.80,SE,135,0.0,7.0,55,0.00,,,0.00,,2013-03-10 22:12:00,
2013-03-10 18:22:00,59.0,43.0,29.79,South,180,7.0,7.0,56,0.00,,,0.00,,2013-03-10 22:22:00,
2013-03-10 18:32:00,59.0,43.0,29.78,SSW,198,12.0,13.0,56,0.00,,,0.00,,2013-03-10 22:32:00,
2013-03-10 18:43:00,59.0,43.0,29.78,SSW,198,12.0,13.0,56,0.00,,,0.00,,2013-03-10 22:43:00,
2013-03-10 18:53:00,58.0,42.0,29.79,SSE,157,6.0,6.0,56,0.00,,,0.00,,2013-03-10 22:53:00,
2013-03-10 19:03:00,58.0,42.0,29.79,SSE,157,0.0,6.0,56,0.00,,,0.00,,2013-03-10 23:03:00,
2013-03-10 19:12:00,57.0,41.0,29.79,South,182,4.0,7.0,56,0.00,,,0.00,,2013-03-10 23:12:00,
2013-03-10 19:23:00,57.0,41.0,29.79,South,182,4.0,7.0,56,0.00,,,0.00,,2013-03-10 23:23:00,
2013-03-10 19:33:00,57.0,41.0,29.79,South,180,3.0,6.0,56,0.00,,,0.00,,2013-03-10 23:33:00,
2013-03-10 19:42:00,57.0,41.0,29.79,South,180,3.0,6.0,56,0.00,,,0.00,,2013-03-10 23:42:00,
2013-03-10 19:52:00,57.0,41.0,29.79,South,180,4.0,6.0,56,0.00,,,0.00,,2013-03-10 23:52:00,
2013-03-10 20:02:00,57.0,42.0,29.79,SE,135,6.0,7.0,57,0.00,,,0.00,,2013-03-11 00:02:00,
2013-03-10 20:12:00,57.0,42.0,29.79,SE,135,6.0,7.0,57,0.00,,,0.00,,2013-03-11 00:12:00,
2013-03-10 20:23:00,57.0,42.0,29.78,SSE,154,6.0,6.0,57,0.00,,,0.00,,2013-03-11 00:23:00,
2013-03-10 20:33:00,57.0,42.0,29.79,South,182,7.0,7.0,57,0.00,,,0.00,,2013-03-11 00:33:00,
2013-03-10 20:43:00,57.0,42.0,29.79,South,182,7.0,7.0,57,0.00,,,0.00,,2013-03-11 00:43:00,
2013-03-10 20:53:00,57.0,42.0,29.79,SSE,157,6.0,7.0,57,0.00,,,0.00,,2013-03-11 00:53:00,
2013-03-10 21:03:00,57.0,41.0,29.78,South,180,3.0,4.0,56,0.00,,,0.00,,2013-03-11 01:03:00,
2013-03-10 21:13:00,57.0,41.0,29.78,South,180,3.0,4.0,56,0.00,,,0.00,,2013-03-11 01:13:00,
2013-03-10 21:23:00,57.0,41.0,29.78,SSE,157,6.0,6.0,56,0.00,,,0.00,,2013-03-11 01:23:00,
2013-03-10 21:32:00,57.0,41.0,29.79,North,-999,-999.0,-999.0,55,0.00,,,0.00,,2013-03-11 01:32:00,
2013-03-10 21:42:00,57.0,41.0,29.79,North,-999,-999.0,-999.0,55,0.00,,,0.00,,2013-03-11 01:42:00,
2013-03-10 21:52:00,56.0,41.0,29.79,SW,225,0.0,4.0,56,0.00,,,0.00,,2013-03-11 01:52:00,
2013-03-10 22:02:00,55.0,41.0,29.79,SW,225,1.0,1.0,60,0.00,,,0.00,,2013-03-11 02:02:00,
2013-03-10 22:12:00,55.0,41.0,29.79,SW,225,1.0,1.0,60,0.00,,,0.00,,2013-03-11 02:12:00,
2013-03-10 22:23:00,54.0,40.0,29.78,SSW,202,0.0,0.0,60,0.00,,,0.00,,2013-03-11 02:23:00,
2013-03-10 22:32:00,53.0,40.0,29.77,SSE,157,3.0,3.0,62,0.00,,,0.00,,2013-03-11 02:32:00,
2013-03-10 22:42:00,53.0,40.0,29.77,SSE,157,3.0,3.0,62,0.00,,,0.00,,2013-03-11 02:42:00,
2013-03-10 22:52:00,53.0,40.0,29.77,SSE,157,2.0,3.0,62,0.00,,,0.00,,2013-03-11 02:52:00,
2013-03-10 23:02:00,53.0,41.0,29.77,SSE,157,1.0,4.0,63,0.00,,,0.00,,2013-03-11 03:02:00,
2013-03-10 23:12:00,53.0,41.0,29.77,SSE,157,1.0,4.0,63,0.00,,,0.00,,2013-03-11 03:12:00,
2013-03-10 23:22:00,53.0,41.0,29.77,SSE,157,4.0,5.0,63,0.00,,,0.00,,2013-03-11 03:22:00,
2013-03-10 23:32:00,52.0,40.0,29.77,SSE,157,2.0,2.0,63,0.00,,,0.00,,2013-03-11 03:32:00,
2013-03-10 23:42:00,52.0,40.0,29.77,SSE,157,2.0,2.0,63,0.00,,,0.00,,2013-03-11 03:42:00,
2013-03-10 23:52:00,52.0,40.0,29.77,South,180,7.0,7.0,63,0.00,,,0.00,,2013-03-11 03:52:00,